• Join FlightAware (Why Join?)
  • Login
  • US Flag 
08:34AM EDT


 

Airport Tracker/Info


-or-


 

Live Flight TrackerFlight Track Log ✈ N700MP ✈ 07-Jun-2013 ✈ KBOS - KYIP

Flight Track Log - Related Links

Times and Time Zones

All times are in EDT time to prevent confusion due to time zone crossing. See the N700MP flight status page for this flight to view local times or setup timezone preferences in your user account.

Time Position Orientation Groundspeed Altitude Reporting Facility
EDT Latitude Longitude Course Direction KTS MPH feet Rate Location/Type
01:37PM 42.3667 -70.9833 90° East 152 175 600  Level KA90
01:37PM 42.3667 -70.9333 90° East 175 201 2,900 2,820 Climbing KA90
01:39PM 42.4225 -70.8369 52° Northeast 260 299 7,400 2,820 Climbing Boston Center
01:40PM 42.5097 -70.8206 North 247 284 10,600 2,580 Climbing Boston Center
01:41PM 42.5711 -70.8950 318° Northwest 230 265 12,600 1,860 Climbing Boston Center
01:42PM 42.6353 -71.0150 306° West 285 328 14,400 1,680 Climbing Boston Center
01:43PM 42.6928 -71.1181 307° West 344 396 16,100 1,800 Climbing Boston Center
01:44PM 42.7653 -71.2494 307° West 388 447 18,100 1,800 Climbing Boston Center
01:45PM 42.8433 -71.3442 318° Northwest 398 458 19,700 1,860 Climbing Boston Center
01:46PM 42.8758 -71.4939 287° West 362 417 21,900 1,800 Climbing Boston Center
01:47PM 42.8872 -71.6183 277° West 368 423 23,400 1,620 Climbing Boston Center
01:48PM 42.8986 -71.7825 275° West 373 429 25,500 1,620 Climbing Boston Center
01:49PM 42.9078 -71.9156 275° West 367 422 27,000 1,380 Climbing Boston Center
01:50PM 42.9167 -72.0433 275° West 362 417 28,300 1,260 Climbing Boston Center
01:51PM 42.9253 -72.1933 275° West 362 417 29,600 1,080 Climbing Boston Center
01:52PM 42.9381 -72.3125 278° West 362 417 30,500 960 Climbing Boston Center
01:53PM 42.9464 -72.4486 275° West 362 417 31,600 1,080 Climbing Boston Center
01:54PM 42.9589 -72.5819 277° West 362 417 32,700 900 Climbing Boston Center
01:55PM 42.9544 -72.7153 267° West 362 417 33,500 780 Climbing Boston Center
01:56PM 42.9603 -72.8572 273° West 367 422 34,300 840 Climbing Boston Center
01:57PM 42.9742 -73.0133 277° West 367 422 35,200 840 Climbing Boston Center
01:58PM 42.9797 -73.1553 273° West 373 429 36,000 720 Climbing Boston Center
01:59PM 42.9850 -73.2944 273° West 373 429 36,700 720 Climbing Boston Center
02:00PM 42.9839 -73.4164 269° West 373 429 37,500 600 Climbing Boston Center
02:01PM 42.9911 -73.5556 274° West 367 422 38,000 240 Climbing Boston Center
02:02PM 42.9958 -73.7006 273° West 367 422 38,000  Level Boston Center
02:03PM 43.0022 -73.8483 273° West 379 436 38,000  Level Boston Center
02:04PM 43.0086 -74.0017 273° West 394 453 38,000  Level Boston Center
02:05PM 43.0128 -74.1553 272° West 400 460 38,000  Level Boston Center
02:06PM 43.0167 -74.3031 272° West 406 467 38,000  Level Boston Center
02:07PM 43.0225 -74.4564 273° West 406 467 38,000  Level Boston Center
02:08PM 43.0300 -74.6103 274° West 406 467 38,000  Level Boston Center
02:09PM 43.0311 -74.7636 271° West 406 467 38,000  Level Boston Center
02:10PM 43.0361 -74.9172 273° West 406 467 38,000  Level Boston Center
02:11PM 43.0389 -75.0736 271° West 406 467 38,000  Level Boston Center
02:12PM 43.0433 -75.2442 272° West 406 467 38,000  Level Boston Center
02:13PM 43.0475 -75.4008 272° West 406 467 38,000  Level Boston Center
02:14PM 43.0497 -75.5572 271° West 406 467 38,000  Level Boston Center
02:15PM 43.0558 -75.7139 273° West 411 473 38,000  Level Boston Center
02:17PM 43.0500 -75.9833 268° West 410 472 38,000  Level Toronto Center
02:18PM 43.0667 -76.1500 278° West 410 472 38,000  Level Toronto Center
02:19PM 43.0500 -76.3000 261° West 420 483 38,000  Level Toronto Center
02:20PM 43.0692 -76.4847 278° West 406 467 38,000  Level Cleveland Center
02:21PM 43.0725 -76.6408 272° West 406 467 38,000  Level Cleveland Center
02:22PM 43.0728 -76.7772 270° West 406 467 38,000  Level Cleveland Center
02:23PM 43.0739 -76.9336 271° West 406 467 38,000  Level Cleveland Center
02:24PM 43.0767 -77.0928 271° West 411 473 38,000  Level Cleveland Center
02:25PM 43.0772 -77.2547 270° West 422 486 38,000  Level Cleveland Center
02:26PM 43.0794 -77.4139 271° West 422 486 38,000  Level Cleveland Center
02:27PM 43.0797 -77.5731 270° West 422 486 38,000  Level Cleveland Center
02:28PM 43.0817 -77.7292 271° West 422 486 38,000  Level Cleveland Center
02:29PM 43.0817 -77.9056 270° West 422 486 38,000  Level Cleveland Center
02:30PM 43.0808 -78.0619 270° West 422 486 38,000  Level Cleveland Center
02:31PM 43.0822 -78.2211 271° West 422 486 38,000 -60 Level Cleveland Center
02:32PM 43.0811 -78.3831 270° West 422 486 37,900 -480 Descending Cleveland Center
02:33PM 43.0800 -78.5394 269° West 422 486 37,100 -840 Descending Cleveland Center
02:34PM 43.0783 -78.6989 269° West 422 486 36,300 -780 Descending Cleveland Center
02:35PM 43.0786 -78.8522 270° West 417 480 35,600 -840 Descending Cleveland Center
02:36PM 43.0747 -79.0058 268° West 417 480 34,700 -840 Descending Cleveland Center
02:37PM 43.0667 -79.1500 266° West 400 460 33,900 -900 Descending Toronto Center
02:38PM 43.0667 -79.2833 270° West 400 460 32,900 -1,080 Descending Toronto Center
02:39PM 43.0667 -79.4500 270° West 410 472 31,800 -1,140 Descending Toronto Center
02:40PM 43.0667 -79.6167 270° West 410 472 30,700 -900 Descending Toronto Center
02:41PM 43.0500 -79.7667 261° West 410 472 30,000 -360 Descending Toronto Center
02:42PM 43.0500 -79.9000 270° West 400 460 30,000  Level Toronto Center
02:43PM 43.0333 -80.0667 262° West 400 460 30,000  Level Toronto Center
02:44PM 43.0167 -80.2000 260° West 400 460 30,000  Level Toronto Center
02:45PM 43.0167 -80.3667 270° West 400 460 30,000  Level Toronto Center
02:46PM 43.0000 -80.5000 260° West 400 460 30,000 -960 Level Toronto Center
02:47PM 42.9833 -80.6667 262° West 400 460 28,100 -1,800 Descending Toronto Center
02:48PM 42.9667 -80.8000 260° West 390 449 26,500 -1,800 Descending Toronto Center
02:49PM 42.9333 -80.9500 253° West 380 437 24,500 -1,980 Descending Toronto Center
02:50PM 42.9167 -81.0833 260° West 380 437 22,600 -1,980 Descending Toronto Center
02:51PM 42.9000 -81.2333 261° West 380 437 20,600 -2,100 Descending Toronto Center
02:52PM 42.8833 -81.3833 261° West 390 449 18,500 -2,100 Descending Toronto Center
02:53PM 42.8667 -81.5167 260° West 390 449 16,500 -1,980 Descending Toronto Center
02:54PM 42.8767 -81.5975 280° West 392 451 15,800 -1,920 Descending Cleveland Center
02:55PM 42.8586 -81.7417 260° West 392 451 13,900 -1,740 Descending Cleveland Center
02:56PM 42.8428 -81.8658 260° West 392 451 12,400 -1,500 Descending Cleveland Center
02:57PM 42.8244 -82.0069 260° West 392 451 11,000 -540 Descending Cleveland Center
02:58PM 42.7500 -82.2167 244° Southwest 390 449 11,000  Level Toronto Center
02:59PM 42.7519 -82.2797 272° West 392 451 11,000  Level Cleveland Center
03:00PM 42.7144 -82.4200 250° West 392 451 11,000 -600 Level Cleveland Center
03:01PM 42.6831 -82.5461 251° West 380 437 9,900 -1,380 Descending Cleveland Center
03:01PM 42.6511 -82.5903 225° Southwest 285 328 9,000 -1,500 Descending Cleveland Center
03:02PM 42.6217 -82.6092 205° Southwest 313 360 8,400 -1,500 Descending Cleveland Center
03:02PM 42.5892 -82.6700 234° Southwest 269 310 7,300 -1,500 Descending Cleveland Center
03:03PM 42.5806 -82.6925 243° Southwest 290 334 6,900 -1,560 Descending Cleveland Center
03:03PM 42.5378 -82.7472 223° Southwest 273 314 5,600 -1,620 Descending Cleveland Center
03:04PM 42.5231 -82.7525 195° South 276 318 5,300 -540 Descending Cleveland Center
03:04PM 42.4664 -82.7814 201° Southwest 263 303 5,100 -240 Descending Cleveland Center
03:05PM 42.4558 -82.7894 209° Southwest 260 299 5,100 -120 Level Cleveland Center
03:05PM 42.4156 -82.8247 213° Southwest 249 287 5,000  Descending Cleveland Center
03:06PM 42.3539 -82.8731 210° Southwest 256 295 5,100  Climbing Cleveland Center
03:07PM 42.2883 -82.9242 210° Southwest 254 292 5,000 -60 Descending Cleveland Center
03:08PM 42.2269 -82.9722 210° Southwest 255 293 5,000  Level Cleveland Center
03:09PM 42.1917 -83.0578 241° Southwest 253 291 5,000  Level Cleveland Center
03:10PM 42.1586 -83.1378 241° Southwest 251 289 5,000  Level Cleveland Center
03:11PM 42.1650 -83.2278 276° West 243 280 5,000  Level Cleveland Center
03:12PM 42.1900 -83.3211 290° West 247 284 5,000  Level Cleveland Center
03:13PM 42.2108 -83.4033 289° West 249 287 5,000  Level Cleveland Center
03:14PM 42.2317 -83.4914 288° West 249 287 5,000 -480 Level Cleveland Center
03:15PM 42.2522 -83.5792 288° West 243 280 4,100 -1,020 Descending Cleveland Center
03:16PM 42.2439 -83.6603 262° West 221 254 3,000 -540 Descending Cleveland Center
03:17PM 42.2211 -83.7347 248° West 225 259 3,100 60 Climbing Cleveland Center